Time,TemperatureF,DewpointF,PressureIn,WindDirection,WindDirectionDegrees,WindSpeedMPH,WindSpeedGustMPH,Humidity,HourlyPrecipIn,Conditions,Clouds,dailyrainin,SolarRadiationWatts/m^2,SoftwareType,DateUTC
2013-01-16 00:03:00,33.0,32.0,-100.00,East,96,1.0,5.0,97,0.12,,,0.69,0.000000,,2013-01-16 05:03:00,
2013-01-16 00:12:00,33.0,32.0,-100.00,East,96,1.0,5.0,97,0.12,,,0.69,0.000000,,2013-01-16 05:12:00,
2013-01-16 00:33:00,33.0,32.0,-100.00,ENE,76,2.0,4.0,97,0.13,,,0.80,0.000000,,2013-01-16 05:33:00,
2013-01-16 00:42:00,33.0,32.0,-100.00,ENE,76,2.0,4.0,97,0.13,,,0.80,0.000000,,2013-01-16 05:42:00,
2013-01-16 00:53:00,33.0,32.0,-100.00,ENE,76,2.0,4.0,97,0.13,,,0.80,0.000000,,2013-01-16 05:53:00,
2013-01-16 01:03:00,33.0,32.0,-100.00,ENE,76,2.0,4.0,97,0.13,,,0.80,0.000000,,2013-01-16 06:03:00,
2013-01-16 01:12:00,33.0,32.0,-100.00,ENE,76,2.0,4.0,97,0.13,,,0.80,0.000000,,2013-01-16 06:12:00,
2013-01-16 01:33:00,34.0,33.0,-100.00,NW,308,1.0,6.0,97,0.05,,,0.85,0.000000,,2013-01-16 06:33:00,
2013-01-16 01:43:00,34.0,33.0,-100.00,NW,308,1.0,6.0,97,0.05,,,0.85,0.000000,,2013-01-16 06:43:00,
2013-01-16 01:53:00,34.0,33.0,-100.00,NW,308,1.0,6.0,97,0.05,,,0.85,0.000000,,2013-01-16 06:53:00,
2013-01-16 02:02:00,34.0,33.0,-100.00,NW,308,1.0,6.0,97,0.05,,,0.85,0.000000,,2013-01-16 07:02:00,
2013-01-16 02:12:00,34.0,33.0,-100.00,NW,308,1.0,6.0,97,0.05,,,0.85,0.000000,,2013-01-16 07:12:00,
2013-01-16 02:33:00,34.0,34.0,-100.00,ENE,71,2.0,4.0,98,0.01,,,0.86,0.000000,,2013-01-16 07:33:00,
2013-01-16 02:42:00,34.0,34.0,-100.00,ENE,71,2.0,4.0,98,0.01,,,0.86,0.000000,,2013-01-16 07:42:00,
2013-01-16 02:52:00,34.0,34.0,-100.00,ENE,71,2.0,4.0,98,0.01,,,0.86,0.000000,,2013-01-16 07:52:00,
2013-01-16 03:03:00,34.0,34.0,-100.00,ENE,71,2.0,4.0,98,0.01,,,0.86,0.000000,,2013-01-16 08:03:00,
2013-01-16 03:12:00,34.0,34.0,-100.00,ENE,71,2.0,4.0,98,0.01,,,0.86,0.000000,,2013-01-16 08:12:00,
2013-01-16 03:42:00,34.0,34.0,-100.00,NNW,341,1.0,5.0,98,0.02,,,0.88,0.000000,,2013-01-16 08:42:00,
2013-01-16 03:53:00,34.0,34.0,-100.00,NNW,341,1.0,5.0,98,0.02,,,0.88,0.000000,,2013-01-16 08:53:00,
2013-01-16 04:02:00,34.0,34.0,-100.00,NNW,341,1.0,5.0,98,0.02,,,0.88,0.000000,,2013-01-16 09:02:00,
2013-01-16 04:12:00,34.0,34.0,-100.00,NNW,341,1.0,5.0,98,0.02,,,0.88,0.000000,,2013-01-16 09:12:00,
2013-01-16 04:33:00,35.0,35.0,-100.00,NW,310,1.0,3.0,99,0.05,,,0.93,0.000000,,2013-01-16 09:33:00,
2013-01-16 04:43:00,35.0,35.0,-100.00,NW,310,1.0,3.0,99,0.05,,,0.93,0.000000,,2013-01-16 09:43:00,
2013-01-16 04:53:00,35.0,35.0,-100.00,NW,310,1.0,3.0,99,0.05,,,0.93,0.000000,,2013-01-16 09:53:00,
2013-01-16 05:03:00,35.0,35.0,-100.00,NW,310,1.0,3.0,99,0.05,,,0.93,0.000000,,2013-01-16 10:03:00,
2013-01-16 05:12:00,35.0,35.0,-100.00,NW,310,1.0,3.0,99,0.05,,,0.93,0.000000,,2013-01-16 10:12:00,
2013-01-16 05:33:00,35.0,35.0,-100.00,South,181,1.0,4.0,99,0.07,,,1.00,0.000000,,2013-01-16 10:33:00,
2013-01-16 05:43:00,35.0,35.0,-100.00,South,181,1.0,4.0,99,0.07,,,1.00,0.000000,,2013-01-16 10:43:00,
2013-01-16 05:53:00,35.0,35.0,-100.00,South,181,1.0,4.0,99,0.07,,,1.00,0.000000,,2013-01-16 10:53:00,
2013-01-16 06:02:00,35.0,35.0,-100.00,South,181,1.0,4.0,99,0.07,,,1.00,0.000000,,2013-01-16 11:02:00,
2013-01-16 06:12:00,35.0,35.0,-100.00,South,181,1.0,4.0,99,0.07,,,1.00,0.000000,,2013-01-16 11:12:00,
2013-01-16 06:33:00,35.0,35.0,-100.00,South,179,1.0,5.0,99,0.11,,,1.11,0.000000,,2013-01-16 11:33:00,
2013-01-16 06:43:00,35.0,35.0,-100.00,South,179,1.0,5.0,99,0.11,,,1.11,0.000000,,2013-01-16 11:43:00,
2013-01-16 06:53:00,35.0,35.0,-100.00,South,179,1.0,5.0,99,0.11,,,1.11,0.000000,,2013-01-16 11:53:00,
2013-01-16 07:03:00,35.0,35.0,-100.00,South,179,1.0,5.0,99,0.11,,,1.11,0.000000,,2013-01-16 12:03:00,
2013-01-16 07:13:00,35.0,35.0,-100.00,South,179,1.0,5.0,99,0.11,,,1.11,0.000000,,2013-01-16 12:13:00,
2013-01-16 07:33:00,36.0,36.0,-100.00,ESE,118,3.0,6.0,99,0.11,,,1.22,0.000000,,2013-01-16 12:33:00,
2013-01-16 07:43:00,36.0,36.0,-100.00,ESE,118,3.0,6.0,99,0.11,,,1.22,0.000000,,2013-01-16 12:43:00,
2013-01-16 07:53:00,36.0,36.0,-100.00,ESE,118,3.0,6.0,99,0.11,,,1.22,0.000000,,2013-01-16 12:53:00,
2013-01-16 08:03:00,36.0,36.0,-100.00,ESE,118,3.0,6.0,99,0.11,,,1.22,0.000000,,2013-01-16 13:03:00,
2013-01-16 08:12:00,36.0,36.0,-100.00,ESE,118,3.0,6.0,99,0.11,,,1.22,0.000000,,2013-01-16 13:12:00,
2013-01-16 08:43:00,38.0,38.0,-100.00,SSE,163,2.0,10.0,100,0.06,,,1.27,2.000000,,2013-01-16 13:43:00,
2013-01-16 08:53:00,38.0,38.0,-100.00,SSE,163,2.0,10.0,100,0.06,,,1.27,2.000000,,2013-01-16 13:53:00,
2013-01-16 09:03:00,38.0,38.0,-100.00,SSE,163,2.0,10.0,100,0.06,,,1.27,2.000000,,2013-01-16 14:03:00,
2013-01-16 09:12:00,38.0,38.0,-100.00,SSE,163,2.0,10.0,100,0.06,,,1.27,2.000000,,2013-01-16 14:12:00,
2013-01-16 09:33:00,40.0,40.0,-100.00,West,272,4.0,7.0,100,0.04,,,1.30,13.000000,,2013-01-16 14:33:00,
2013-01-16 09:43:00,40.0,40.0,-100.00,West,272,4.0,7.0,100,0.04,,,1.30,13.000000,,2013-01-16 14:43:00,
2013-01-16 09:53:00,40.0,40.0,-100.00,West,272,4.0,7.0,100,0.04,,,1.30,13.000000,,2013-01-16 14:53:00,
2013-01-16 10:03:00,40.0,40.0,-100.00,West,272,4.0,7.0,100,0.04,,,1.30,13.000000,,2013-01-16 15:03:00,
2013-01-16 10:12:00,40.0,40.0,-100.00,West,272,4.0,7.0,100,0.04,,,1.30,13.000000,,2013-01-16 15:12:00,
2013-01-16 10:43:00,40.0,40.0,-100.00,NW,310,8.0,19.0,100,0.01,,,1.31,23.000000,,2013-01-16 15:43:00,
2013-01-16 10:53:00,40.0,40.0,-100.00,NW,310,8.0,19.0,100,0.01,,,1.31,23.000000,,2013-01-16 15:53:00,
2013-01-16 11:04:00,40.0,40.0,-100.00,NW,310,8.0,19.0,100,0.01,,,1.31,23.000000,,2013-01-16 16:04:00,
2013-01-16 11:12:00,40.0,40.0,-100.00,NW,310,8.0,19.0,100,0.01,,,1.31,23.000000,,2013-01-16 16:12:00,
2013-01-16 11:33:00,35.0,34.0,-100.00,WNW,287,7.0,23.0,97,0.00,,,1.30,18.000000,,2013-01-16 16:33:00,
2013-01-16 11:43:00,35.0,34.0,-100.00,WNW,287,7.0,23.0,97,0.00,,,1.30,18.000000,,2013-01-16 16:43:00,
2013-01-16 11:53:00,35.0,34.0,-100.00,WNW,287,7.0,23.0,97,0.00,,,1.30,18.000000,,2013-01-16 16:53:00,
2013-01-16 12:03:00,35.0,34.0,-100.00,WNW,287,7.0,23.0,97,0.00,,,1.30,18.000000,,2013-01-16 17:03:00,
2013-01-16 12:12:00,35.0,34.0,-100.00,WNW,287,7.0,23.0,97,0.00,,,1.30,18.000000,,2013-01-16 17:12:00,
2013-01-16 12:33:00,35.0,34.0,-100.00,WSW,252,5.0,12.0,97,0.00,,,1.30,16.000000,,2013-01-16 17:33:00,
2013-01-16 12:44:00,35.0,34.0,-100.00,WSW,252,5.0,12.0,97,0.00,,,1.30,16.000000,,2013-01-16 17:44:00,
2013-01-16 12:53:00,35.0,34.0,-100.00,WSW,252,5.0,12.0,97,0.00,,,1.30,16.000000,,2013-01-16 17:53:00,
2013-01-16 13:03:00,35.0,34.0,-100.00,WSW,252,5.0,12.0,97,0.00,,,1.30,16.000000,,2013-01-16 18:03:00,
2013-01-16 13:13:00,35.0,34.0,-100.00,WSW,252,5.0,12.0,97,0.00,,,1.30,16.000000,,2013-01-16 18:13:00,
2013-01-16 13:33:00,35.0,34.0,-100.00,WSW,246,5.0,10.0,98,0.00,,,1.30,17.000000,,2013-01-16 18:33:00,
2013-01-16 13:43:00,35.0,34.0,-100.00,WSW,246,5.0,10.0,98,0.00,,,1.30,17.000000,,2013-01-16 18:43:00,
2013-01-16 13:53:00,35.0,34.0,-100.00,WSW,246,5.0,10.0,98,0.00,,,1.30,17.000000,,2013-01-16 18:53:00,
2013-01-16 14:03:00,35.0,34.0,-100.00,WSW,246,5.0,10.0,98,0.00,,,1.30,17.000000,,2013-01-16 19:03:00,
2013-01-16 14:13:00,35.0,34.0,-100.00,WSW,246,5.0,10.0,98,0.00,,,1.30,17.000000,,2013-01-16 19:13:00,
2013-01-16 14:33:00,35.0,34.0,-100.00,WSW,258,5.0,10.0,96,0.00,,,1.30,31.000000,,2013-01-16 19:33:00,
2013-01-16 14:43:00,35.0,34.0,-100.00,WSW,258,5.0,10.0,96,0.00,,,1.30,31.000000,,2013-01-16 19:43:00,
2013-01-16 14:53:00,35.0,34.0,-100.00,WSW,258,5.0,10.0,96,0.00,,,1.30,31.000000,,2013-01-16 19:53:00,
2013-01-16 15:03:00,35.0,34.0,-100.00,WSW,258,5.0,10.0,96,0.00,,,1.30,31.000000,,2013-01-16 20:03:00,
2013-01-16 15:12:00,35.0,34.0,-100.00,WSW,258,5.0,10.0,96,0.00,,,1.30,31.000000,,2013-01-16 20:12:00,
2013-01-16 15:43:00,35.0,34.0,-100.00,WSW,248,5.0,9.0,96,0.01,,,1.31,28.000000,,2013-01-16 20:43:00,
2013-01-16 15:53:00,35.0,34.0,-100.00,WSW,248,5.0,9.0,96,0.01,,,1.31,28.000000,,2013-01-16 20:53:00,
2013-01-16 16:03:00,35.0,34.0,-100.00,WSW,248,5.0,9.0,96,0.01,,,1.31,28.000000,,2013-01-16 21:03:00,
2013-01-16 16:12:00,35.0,34.0,-100.00,WSW,248,5.0,9.0,96,0.01,,,1.31,28.000000,,2013-01-16 21:12:00,
2013-01-16 16:43:00,35.0,34.0,-100.00,West,263,5.0,9.0,96,0.01,,,1.32,25.000000,,2013-01-16 21:43:00,
2013-01-16 16:53:00,35.0,34.0,-100.00,West,263,5.0,9.0,96,0.01,,,1.32,25.000000,,2013-01-16 21:53:00,
2013-01-16 17:03:00,35.0,34.0,-100.00,West,263,5.0,9.0,96,0.01,,,1.32,25.000000,,2013-01-16 22:03:00,
2013-01-16 17:12:00,35.0,34.0,-100.00,West,263,5.0,9.0,96,0.01,,,1.32,25.000000,,2013-01-16 22:12:00,
2013-01-16 17:33:00,35.0,34.0,-100.00,WSW,242,3.0,7.0,97,0.00,,,1.32,5.000000,,2013-01-16 22:33:00,
2013-01-16 17:43:00,35.0,34.0,-100.00,WSW,242,3.0,7.0,97,0.00,,,1.32,5.000000,,2013-01-16 22:43:00,
2013-01-16 17:53:00,35.0,34.0,-100.00,WSW,242,3.0,7.0,97,0.00,,,1.32,5.000000,,2013-01-16 22:53:00,
2013-01-16 18:03:00,35.0,34.0,-100.00,WSW,242,3.0,7.0,97,0.00,,,1.32,5.000000,,2013-01-16 23:03:00,
2013-01-16 18:12:00,35.0,34.0,-100.00,WSW,242,3.0,7.0,97,0.00,,,1.32,5.000000,,2013-01-16 23:12:00,
2013-01-16 18:33:00,36.0,35.0,-100.00,WSW,258,4.0,6.0,95,0.00,,,1.26,0.000000,,2013-01-16 23:33:00,
2013-01-16 18:43:00,36.0,35.0,-100.00,WSW,258,4.0,6.0,95,0.00,,,1.26,0.000000,,2013-01-16 23:43:00,
2013-01-16 18:53:00,36.0,35.0,-100.00,WSW,258,4.0,6.0,95,0.00,,,1.26,0.000000,,2013-01-16 23:53:00,
2013-01-16 19:03:00,36.0,35.0,-100.00,WSW,258,4.0,6.0,95,0.00,,,1.26,0.000000,,2013-01-17 00:03:00,
2013-01-16 19:12:00,36.0,35.0,-100.00,WSW,258,4.0,6.0,95,0.00,,,1.26,0.000000,,2013-01-17 00:12:00,
2013-01-16 19:33:00,36.0,35.0,-100.00,WSW,251,0.0,5.0,95,0.00,,,1.16,0.000000,,2013-01-17 00:33:00,
2013-01-16 19:42:00,36.0,35.0,-100.00,WSW,251,0.0,5.0,95,0.00,,,1.16,0.000000,,2013-01-17 00:42:00,
2013-01-16 19:53:00,36.0,35.0,-100.00,WSW,251,0.0,5.0,95,0.00,,,1.16,0.000000,,2013-01-17 00:53:00,
2013-01-16 20:02:00,36.0,35.0,-100.00,WSW,251,0.0,5.0,95,0.00,,,1.16,0.000000,,2013-01-17 01:02:00,
2013-01-16 20:12:00,36.0,35.0,-100.00,WSW,251,0.0,5.0,95,0.00,,,1.16,0.000000,,2013-01-17 01:12:00,
2013-01-16 20:33:00,36.0,35.0,-100.00,West,263,3.0,5.0,95,0.00,,,1.05,0.000000,,2013-01-17 01:33:00,
2013-01-16 20:43:00,36.0,35.0,-100.00,West,263,3.0,5.0,95,0.00,,,1.05,0.000000,,2013-01-17 01:43:00,
2013-01-16 20:53:00,36.0,35.0,-100.00,West,263,3.0,5.0,95,0.00,,,1.05,0.000000,,2013-01-17 01:53:00,
2013-01-16 21:02:00,36.0,35.0,-100.00,West,263,3.0,5.0,95,0.00,,,1.05,0.000000,,2013-01-17 02:02:00,
2013-01-16 21:12:00,36.0,35.0,-100.00,West,263,3.0,5.0,95,0.00,,,1.05,0.000000,,2013-01-17 02:12:00,
2013-01-16 21:32:00,36.0,34.0,-100.00,SW,232,3.0,8.0,94,0.00,,,0.94,0.000000,,2013-01-17 02:32:00,
2013-01-16 21:43:00,36.0,34.0,-100.00,SW,232,3.0,8.0,94,0.00,,,0.94,0.000000,,2013-01-17 02:43:00,
2013-01-16 21:52:00,36.0,34.0,-100.00,SW,232,3.0,8.0,94,0.00,,,0.94,0.000000,,2013-01-17 02:52:00,
2013-01-16 22:03:00,36.0,34.0,-100.00,SW,232,3.0,8.0,94,0.00,,,0.94,0.000000,,2013-01-17 03:03:00,
2013-01-16 22:12:00,36.0,34.0,-100.00,SW,232,3.0,8.0,94,0.00,,,0.94,0.000000,,2013-01-17 03:12:00,
2013-01-16 22:33:00,37.0,35.0,-100.00,WSW,242,1.0,7.0,94,0.00,,,0.80,0.000000,,2013-01-17 03:33:00,
2013-01-16 22:43:00,37.0,35.0,-100.00,WSW,242,1.0,7.0,94,0.00,,,0.80,0.000000,,2013-01-17 03:43:00,
2013-01-16 22:53:00,37.0,35.0,-100.00,WSW,242,1.0,7.0,94,0.00,,,0.80,0.000000,,2013-01-17 03:53:00,
2013-01-16 23:02:00,37.0,35.0,-100.00,WSW,242,1.0,7.0,94,0.00,,,0.80,0.000000,,2013-01-17 04:02:00,
2013-01-16 23:12:00,37.0,35.0,-100.00,WSW,242,1.0,7.0,94,0.00,,,0.80,0.000000,,2013-01-17 04:12:00,
2013-01-16 23:33:00,36.0,35.0,-100.00,SW,225,2.0,5.0,96,0.00,,,0.68,0.000000,,2013-01-17 04:33:00,
2013-01-16 23:43:00,36.0,35.0,-100.00,SW,225,2.0,5.0,96,0.00,,,0.68,0.000000,,2013-01-17 04:43:00,
2013-01-16 23:53:00,36.0,35.0,-100.00,SW,225,2.0,5.0,96,0.00,,,0.68,0.000000,,2013-01-17 04:53:00,